Terminal Aerodrome Forecast
Issued by NWS Quad Cities IA IL

Home | Current Version | Previous Version | Text Only | Print | Product List | Glossary On
Versions: 1 2 3 4 5 6 7 8 9 10 11 12 13 14 15 16 17 18 19 20 21 22 23 24 25 26 27 28 29 30 31 32 33 34 35 36 37 38 39
333
FTUS43 KDVN 271120
TAFDBQ
TAF
KDBQ 271120Z 2712/2812 33005KT 3SM BR SCT003 OVC010
      TEMPO 2712/2715 1SM BR OVC003
     FM271500 04006KT 5SM BR OVC012
     FM272000 36006KT P6SM OVC012
     FM280400 01005KT 4SM BR OVC010=

USA.gov is the U.S. government's official web portal to all federal, state and local government web resources and services.